Time;durP1;ratioP1;P1;durP2;ratioP2;P2;SDS_P1;SDS_P2;PMS_P1;PMS_P2;Temp;Humidity;BMP_temperature;BMP_pressure;BME280_temperature;BME280_humidity;BME280_pressure;Samples;Min_cycle;Max_cycle;Signal;HPM_P1;HPM_P2
2024/03/23 00:02:19;;;;;;;2.87;1.37;;;17.20;68.60;;;;;;2369205;53;21285;-67
2024/03/23 00:04:47;;;;;;;3.00;1.40;;;17.30;68.50;;;;;;2369220;53;21419;-68
2024/03/23 00:07:13;;;;;;;3.17;1.40;;;17.30;68.60;;;;;;2368344;53;20997;-67
2024/03/23 00:09:41;;;;;;;3.50;1.52;;;17.40;68.70;;;;;;2369371;53;20926;-65
2024/03/23 00:12:07;;;;;;;3.03;1.30;;;17.40;68.70;;;;;;2368985;53;21734;-67
2024/03/23 00:14:33;;;;;;;4.50;1.40;;;17.40;68.60;;;;;;2369215;53;21038;-65
2024/03/23 00:17:00;;;;;;;5.32;1.48;;;17.50;68.60;;;;;;2368608;53;21034;-67
2024/03/23 00:19:26;;;;;;;3.50;1.40;;;17.50;68.70;;;;;;2348627;53;21584;-68
2024/03/23 00:21:52;;;;;;;3.03;1.37;;;17.60;68.70;;;;;;2369091;53;20950;-68
2024/03/23 00:24:18;;;;;;;2.80;1.30;;;17.70;68.70;;;;;;2369005;53;21021;-65
2024/03/23 00:26:45;;;;;;;2.67;1.50;;;17.70;68.60;;;;;;2369734;53;21014;-67
2024/03/23 00:29:11;;;;;;;3.75;1.45;;;17.70;68.50;;;;;;2368956;53;20973;-66
2024/03/23 00:31:37;;;;;;;2.83;1.27;;;17.80;68.60;;;;;;2352670;53;20931;-67
2024/03/23 00:34:05;;;;;;;3.72;1.45;;;17.80;68.50;;;;;;2360853;53;20967;-67
2024/03/23 00:36:32;;;;;;;3.03;1.42;;;17.90;68.60;;;;;;2354470;53;21033;-68
2024/03/23 00:38:59;;;;;;;3.10;1.50;;;17.90;68.50;;;;;;2368276;53;20922;-67
2024/03/23 00:41:25;;;;;;;2.70;1.20;;;18.00;68.40;;;;;;2368748;53;20978;-68
2024/03/23 00:43:54;;;;;;;3.15;1.33;;;18.00;68.40;;;;;;2369075;53;20934;-67
2024/03/23 00:46:20;;;;;;;2.78;1.30;;;18.00;68.20;;;;;;2368423;53;21415;-66
2024/03/23 00:48:47;;;;;;;4.10;1.52;;;18.00;68.00;;;;;;2344795;53;21027;-66
2024/03/23 00:51:13;;;;;;;2.90;1.52;;;18.10;68.00;;;;;;2340700;53;21039;-66
2024/03/23 00:53:39;;;;;;;3.20;1.30;;;18.10;67.90;;;;;;2341161;53;21406;-67
2024/03/23 00:56:06;;;;;;;3.87;1.27;;;18.10;67.70;;;;;;2340838;53;20985;-67
2024/03/23 00:58:32;;;;;;;3.85;1.37;;;18.20;67.90;;;;;;2342520;53;20964;-68
2024/03/23 01:00:59;;;;;;;3.80;1.83;;;18.20;68.00;;;;;;2341174;53;20991;-66
2024/03/23 01:03:25;;;;;;;3.72;1.52;;;18.20;67.80;;;;;;2341336;53;21244;-67
2024/03/23 01:05:53;;;;;;;2.75;1.33;;;18.20;67.80;;;;;;2341776;53;20976;-67
2024/03/23 01:08:19;;;;;;;3.67;1.58;;;18.30;67.90;;;;;;2340166;53;22398;-65
2024/03/23 01:10:55;;;;;;;3.42;1.30;;;18.30;67.80;;;;;;2333888;53;21510;-67
2024/03/23 01:13:22;;;;;;;2.95;1.40;;;18.30;66.70;;;;;;2358026;53;21292;-65
2024/03/23 01:15:49;;;;;;;3.42;1.65;;;18.30;67.80;;;;;;2368960;53;20922;-68
2024/03/23 01:18:16;;;;;;;3.25;1.60;;;18.40;67.50;;;;;;2364602;53;21151;-67
2024/03/23 01:20:42;;;;;;;3.30;1.48;;;18.30;67.30;;;;;;2368154;53;21222;-68
2024/03/23 01:23:08;;;;;;;3.37;1.30;;;18.40;67.60;;;;;;2367962;53;20989;-66
2024/03/23 01:25:34;;;;;;;3.10;1.58;;;18.40;67.60;;;;;;2368709;53;21003;-67
2024/03/23 01:28:01;;;;;;;2.90;1.37;;;18.40;67.40;;;;;;2358157;53;21991;-67
2024/03/23 01:30:28;;;;;;;3.00;1.30;;;18.40;67.50;;;;;;2355096;53;21678;-66
2024/03/23 01:32:54;;;;;;;4.32;1.30;;;18.40;67.40;;;;;;2368377;53;20929;-67
2024/03/23 01:35:20;;;;;;;2.60;1.23;;;18.50;67.50;;;;;;2368012;53;20962;-66
2024/03/23 01:37:47;;;;;;;2.62;1.30;;;18.50;67.50;;;;;;2368413;53;21034;-67
2024/03/23 01:40:13;;;;;;;3.03;1.30;;;18.50;67.30;;;;;;2367965;53;20947;-67
2024/03/23 01:42:40;;;;;;;3.58;1.40;;;18.50;67.30;;;;;;2368880;53;21719;-66
2024/03/23 01:45:08;;;;;;;3.78;1.60;;;18.50;67.30;;;;;;2368051;53;21467;-67
2024/03/23 01:47:34;;;;;;;2.33;1.10;;;18.50;67.10;;;;;;2358666;53;21019;-66
2024/03/23 01:50:01;;;;;;;2.67;1.40;;;18.50;67.50;;;;;;2354987;53;22076;-66
2024/03/23 01:52:27;;;;;;;2.35;1.20;;;18.50;67.40;;;;;;2368623;53;21002;-65
2024/03/23 01:54:54;;;;;;;2.50;1.10;;;18.40;67.30;;;;;;2368825;53;21042;-68
2024/03/23 01:57:20;;;;;;;2.80;1.40;;;18.40;67.20;;;;;;2367837;53;20911;-68
2024/03/23 01:59:48;;;;;;;2.72;1.10;;;18.40;67.20;;;;;;2368273;53;21245;-68
2024/03/23 02:02:14;;;;;;;2.92;1.37;;;18.40;67.10;;;;;;2367598;53;20945;-67
2024/03/23 02:04:40;;;;;;;4.72;1.42;;;18.30;66.90;;;;;;2368506;53;21380;-67
2024/03/23 02:07:08;;;;;;;2.58;1.35;;;18.30;66.90;;;;;;2367745;53;20946;-66
2024/03/23 02:09:35;;;;;;;2.58;1.33;;;18.30;66.90;;;;;;2364901;53;21433;-65
2024/03/23 02:12:05;;;;;;;3.22;1.30;;;18.20;66.80;;;;;;2347765;53;21018;-65
2024/03/23 02:14:32;;;;;;;3.20;1.15;;;18.20;66.50;;;;;;2368729;53;21020;-66
2024/03/23 02:16:58;;;;;;;6.40;1.30;;;18.10;66.70;;;;;;2368455;53;20974;-68
2024/03/23 02:19:26;;;;;;;2.50;1.10;;;18.10;66.80;;;;;;2368245;53;21006;-65
2024/03/23 02:21:52;;;;;;;2.58;1.20;;;18.20;67.00;;;;;;2368674;53;20918;-67
2024/03/23 02:24:18;;;;;;;2.70;1.40;;;18.00;66.80;;;;;;2368089;53;21013;-67
2024/03/23 02:26:44;;;;;;;2.58;1.40;;;18.00;66.70;;;;;;2349457;53;20971;-67
2024/03/23 02:29:11;;;;;;;3.28;1.40;;;17.90;66.60;;;;;;2361958;53;20978;-65
2024/03/23 02:31:40;;;;;;;2.65;1.20;;;17.90;66.80;;;;;;2368062;53;21062;-67
2024/03/23 02:34:07;;;;;;;2.42;1.08;;;17.90;66.70;;;;;;2367807;53;20934;-67
2024/03/23 02:36:34;;;;;;;2.25;1.10;;;17.80;66.80;;;;;;2368358;53;21296;-67
2024/03/23 02:39:00;;;;;;;3.03;1.12;;;17.80;66.80;;;;;;2368480;53;21384;-67
2024/03/23 02:41:26;;;;;;;3.42;1.40;;;17.70;66.70;;;;;;2367855;53;20914;-66
2024/03/23 02:43:53;;;;;;;2.55;1.33;;;17.70;66.80;;;;;;2368918;53;21419;-66
2024/03/23 02:46:19;;;;;;;2.85;1.45;;;17.60;66.70;;;;;;2367927;53;21009;-66
2024/03/23 02:48:48;;;;;;;2.92;1.50;;;17.60;66.60;;;;;;2356156;53;21319;-67
2024/03/23 02:51:14;;;;;;;3.03;1.40;;;17.50;66.50;;;;;;2351540;53;20955;-66
2024/03/23 02:53:41;;;;;;;2.17;1.12;;;17.40;66.40;;;;;;2349991;53;21745;-65
2024/03/23 02:56:08;;;;;;;2.60;1.25;;;17.40;66.50;;;;;;2368293;53;21767;-69
2024/03/23 02:58:37;;;;;;;3.20;1.20;;;17.30;66.50;;;;;;2365795;53;21027;-66
2024/03/23 03:01:03;;;;;;;5.22;1.40;;;17.20;66.20;;;;;;2327720;54;21777;-67
2024/03/23 03:03:29;;;;;;;2.58;1.20;;;17.20;66.50;;;;;;2368000;53;20998;-66
2024/03/23 03:05:56;;;;;;;5.60;1.60;;;17.10;66.60;;;;;;2368925;53;20927;-65
2024/03/23 03:08:22;;;;;;;3.50;1.17;;;17.20;66.70;;;;;;2367507;53;21033;-66
2024/03/23 03:10:48;;;;;;;2.20;1.08;;;17.00;66.60;;;;;;2368597;53;21381;-66
2024/03/23 03:13:15;;;;;;;2.45;1.10;;;17.00;66.70;;;;;;2368316;53;20922;-66
2024/03/23 03:15:44;;;;;;;3.40;1.50;;;16.90;66.70;;;;;;2357433;53;20920;-65
2024/03/23 03:18:10;;;;;;;3.40;1.40;;;16.90;66.80;;;;;;2355596;53;21014;-67
2024/03/23 03:20:40;;;;;;;2.80;1.20;;;16.80;66.80;;;;;;2368569;53;21230;-66
2024/03/23 03:23:09;;;;;;;3.55;1.20;;;16.80;66.90;;;;;;2368565;53;21042;-66
2024/03/23 03:25:35;;;;;;;2.50;1.10;;;16.80;67.20;;;;;;2368149;53;21395;-66
2024/03/23 03:28:01;;;;;;;3.53;1.23;;;16.80;67.30;;;;;;2367722;53;20931;-65
2024/03/23 03:30:28;;;;;;;3.03;1.30;;;16.70;67.30;;;;;;2367696;53;21162;-65
2024/03/23 03:32:54;;;;;;;4.20;1.48;;;16.70;67.40;;;;;;2368620;53;20960;-67
2024/03/23 03:35:21;;;;;;;3.20;1.55;;;16.70;67.50;;;;;;2367525;53;21175;-67
2024/03/23 03:37:47;;;;;;;2.78;1.30;;;16.70;67.50;;;;;;2368082;53;21398;-66
2024/03/23 03:40:14;;;;;;;4.00;1.52;;;16.70;67.70;;;;;;2368494;53;20997;-66
2024/03/23 03:42:41;;;;;;;3.65;1.70;;;16.70;67.70;;;;;;2367254;53;20954;-67
2024/03/23 03:45:07;;;;;;;3.83;1.23;;;16.60;67.70;;;;;;2368141;53;21804;-67
2024/03/23 03:47:34;;;;;;;3.17;1.58;;;16.60;67.70;;;;;;2369079;54;20966;-66
2024/03/23 03:50:00;;;;;;;2.58;1.48;;;16.60;67.80;;;;;;2368487;53;20993;-66
2024/03/23 03:52:27;;;;;;;3.10;1.30;;;16.60;67.80;;;;;;2368383;53;21380;-68
2024/03/23 03:55:00;;;;;;;3.80;2.10;;;16.60;67.70;;;;;;2344116;53;21750;-66
2024/03/23 03:57:27;;;;;;;3.12;1.52;;;16.60;67.50;;;;;;2368571;53;21186;-66
2024/03/23 03:59:53;;;;;;;3.20;1.70;;;16.60;67.70;;;;;;2369784;53;20994;-65
2024/03/23 04:02:19;;;;;;;2.78;1.42;;;16.60;67.70;;;;;;2343710;53;21346;-66
2024/03/23 04:04:45;;;;;;;3.15;1.45;;;16.60;67.90;;;;;;2368825;53;21061;-66
2024/03/23 04:07:15;;;;;;;2.85;1.30;;;16.60;68.00;;;;;;2350642;54;21024;-65
2024/03/23 04:09:41;;;;;;;3.53;1.85;;;16.60;68.00;;;;;;2362384;53;21685;-67
2024/03/23 04:12:07;;;;;;;3.40;1.73;;;16.50;68.10;;;;;;2368254;53;21072;-65
2024/03/23 04:14:34;;;;;;;2.72;1.40;;;16.60;68.40;;;;;;2368237;53;20922;-64
2024/03/23 04:17:00;;;;;;;3.50;1.67;;;16.50;68.40;;;;;;2368436;53;20929;-67
2024/03/23 04:19:26;;;;;;;3.15;1.52;;;16.50;68.50;;;;;;2367166;53;21444;-66
2024/03/23 04:21:53;;;;;;;4.85;1.60;;;16.50;68.60;;;;;;2370765;53;21384;-66
2024/03/23 04:24:20;;;;;;;3.25;1.70;;;16.50;68.70;;;;;;2325565;54;20973;-66
2024/03/23 04:26:47;;;;;;;2.70;1.48;;;16.50;68.80;;;;;;2365270;53;20925;-66
2024/03/23 04:29:13;;;;;;;4.18;1.73;;;16.60;68.90;;;;;;2367712;53;21432;-66
2024/03/23 04:31:40;;;;;;;4.18;1.60;;;16.50;68.80;;;;;;2368610;53;21021;-65
2024/03/23 04:34:06;;;;;;;3.55;2.08;;;16.50;68.80;;;;;;2368659;53;20990;-64
2024/03/23 04:36:33;;;;;;;4.35;2.20;;;16.40;68.70;;;;;;2368260;53;20946;-64
2024/03/23 04:39:01;;;;;;;3.80;2.15;;;16.40;68.60;;;;;;2367942;53;21014;-66
2024/03/23 04:41:27;;;;;;;4.72;2.62;;;16.40;68.60;;;;;;2363073;53;21880;-66
2024/03/23 04:43:53;;;;;;;5.90;3.00;;;16.30;68.60;;;;;;2350478;53;21065;-65
2024/03/23 04:46:20;;;;;;;4.22;2.55;;;16.30;68.60;;;;;;2368375;53;21197;-65
2024/03/23 04:48:48;;;;;;;4.85;2.55;;;16.30;68.80;;;;;;2365280;53;20995;-67
2024/03/23 04:51:23;;;;;;;6.30;2.90;;;16.40;69.10;;;;;;2332939;54;21351;-66
2024/03/23 04:53:49;;;;;;;6.15;3.10;;;16.20;68.60;;;;;;2363537;53;21010;-65
2024/03/23 04:56:16;;;;;;;4.82;3.17;;;16.20;69.00;;;;;;2367952;53;21523;-66
2024/03/23 04:58:43;;;;;;;7.15;4.03;;;16.20;69.20;;;;;;2368665;53;20926;-65
2024/03/23 05:01:11;;;;;;;5.65;3.50;;;16.10;69.20;;;;;;2368132;53;21329;-65
2024/03/23 05:03:38;;;;;;;5.20;3.50;;;16.10;69.30;;;;;;2368643;53;20910;-66
2024/03/23 05:06:05;;;;;;;6.03;3.80;;;16.10;69.40;;;;;;2368293;53;21249;-66
2024/03/23 05:08:33;;;;;;;5.40;3.25;;;16.10;69.50;;;;;;2368288;53;21414;-66
2024/03/23 05:11:02;;;;;;;5.53;3.40;;;16.00;69.50;;;;;;2368727;53;20950;-66
2024/03/23 05:13:29;;;;;;;5.70;3.33;;;16.00;69.50;;;;;;2368564;53;21090;-66
2024/03/23 05:15:56;;;;;;;5.43;3.45;;;16.00;69.70;;;;;;2358751;53;21015;-66
2024/03/23 05:18:22;;;;;;;5.03;3.40;;;16.00;69.70;;;;;;2353973;53;21461;-65
2024/03/23 05:20:56;;;;;;;5.57;3.70;;;16.00;69.80;;;;;;2368681;53;20963;-67
2024/03/23 05:23:22;;;;;;;;;;;16.00;69.50;;;;;;2372175;53;20981;-66
2024/03/23 05:25:48;;;;;;;4.25;2.90;;;16.00;68.60;;;;;;2368071;53;20078;-67
2024/03/23 05:28:14;;;;;;;5.85;3.55;;;16.00;69.80;;;;;;2368207;53;20918;-65
2024/03/23 05:30:40;;;;;;;7.22;4.57;;;16.00;69.80;;;;;;2328973;54;21964;-66
2024/03/23 05:33:07;;;;;;;6.55;4.40;;;15.90;69.60;;;;;;2365602;53;21297;-65
2024/03/23 05:35:33;;;;;;;8.52;5.30;;;15.90;69.40;;;;;;2327537;54;21018;-64
2024/03/23 05:38:00;;;;;;;7.37;4.78;;;15.90;69.30;;;;;;2365517;53;21329;-65
2024/03/23 05:40:26;;;;;;;6.95;4.40;;;15.80;69.00;;;;;;2368131;53;21317;-66
2024/03/23 05:42:53;;;;;;;5.82;3.12;;;15.80;68.80;;;;;;2368544;53;21455;-66
2024/03/23 05:45:19;;;;;;;4.75;2.58;;;15.70;68.50;;;;;;2368146;53;21928;-66
2024/03/23 05:47:45;;;;;;;4.15;1.80;;;15.60;68.30;;;;;;2368394;53;21555;-66
2024/03/23 05:50:12;;;;;;;2.85;1.20;;;15.60;68.10;;;;;;2368289;53;21046;-64
2024/03/23 05:52:39;;;;;;;2.72;1.20;;;15.50;67.80;;;;;;2368209;53;21412;-65
2024/03/23 05:55:06;;;;;;;2.30;0.88;;;15.40;67.40;;;;;;2345053;53;20974;-66
2024/03/23 05:57:32;;;;;;;1.73;0.70;;;15.30;67.30;;;;;;2368147;53;21005;-65
2024/03/23 05:59:58;;;;;;;1.40;0.62;;;15.20;67.00;;;;;;2368202;53;20922;-65
2024/03/23 06:02:28;;;;;;;1.15;0.55;;;15.20;66.90;;;;;;2368313;53;20954;-66
2024/03/23 06:04:54;;;;;;;1.33;0.50;;;15.10;66.60;;;;;;2368006;53;21353;-64
2024/03/23 06:07:20;;;;;;;1.12;0.50;;;14.90;66.50;;;;;;2367669;53;21524;-64
2024/03/23 06:09:46;;;;;;;1.48;0.50;;;14.90;66.80;;;;;;2368450;53;21282;-65
2024/03/23 06:12:13;;;;;;;0.90;0.40;;;14.80;66.80;;;;;;2368435;53;20994;-66
2024/03/23 06:14:39;;;;;;;1.87;0.47;;;14.70;66.90;;;;;;2368252;53;21348;-65
2024/03/23 06:17:06;;;;;;;0.90;0.50;;;14.60;67.00;;;;;;2354449;53;21309;-66
2024/03/23 06:19:33;;;;;;;1.02;0.50;;;14.60;67.10;;;;;;2359137;53;20994;-66
2024/03/23 06:21:59;;;;;;;2.05;0.60;;;14.50;67.00;;;;;;2368519;53;20934;-66
2024/03/23 06:24:26;;;;;;;1.42;0.50;;;14.50;67.20;;;;;;2368566;53;21070;-65
2024/03/23 06:26:53;;;;;;;0.90;0.40;;;14.40;67.20;;;;;;2368434;53;20934;-66
2024/03/23 06:29:20;;;;;;;1.58;0.70;;;14.40;67.20;;;;;;2368375;53;20974;-64
2024/03/23 06:31:54;;;;;;;2.70;0.70;;;14.30;67.10;;;;;;2368408;53;21034;-66
2024/03/23 06:34:21;;;;;;;1.08;0.47;;;14.30;66.80;;;;;;2368713;53;21468;-64
2024/03/23 06:36:47;;;;;;;1.98;0.90;;;14.20;67.10;;;;;;2368736;53;20966;-65
2024/03/23 06:39:15;;;;;;;1.40;0.70;;;14.20;67.20;;;;;;2368585;53;21482;-66
2024/03/23 06:41:42;;;;;;;1.73;0.60;;;14.10;67.30;;;;;;2368099;53;21459;-66
2024/03/23 06:44:08;;;;;;;1.50;0.70;;;14.10;67.50;;;;;;2367969;53;21034;-67
2024/03/23 06:46:35;;;;;;;1.67;1.27;;;14.00;67.50;;;;;;2368345;53;20934;-67
2024/03/23 06:49:01;;;;;;;1.27;0.55;;;14.10;67.60;;;;;;2368359;53;20941;-66
2024/03/23 06:51:28;;;;;;;0.90;0.40;;;14.00;67.70;;;;;;2363426;53;20975;-65
2024/03/23 06:53:54;;;;;;;1.10;0.45;;;14.00;67.80;;;;;;2349781;53;20938;-66
2024/03/23 06:56:21;;;;;;;0.62;0.30;;;14.00;67.90;;;;;;2367846;53;20957;-66
2024/03/23 06:58:47;;;;;;;1.20;0.65;;;13.90;67.70;;;;;;2368456;53;21372;-67
2024/03/23 07:01:13;;;;;;;0.90;0.40;;;14.00;67.60;;;;;;2368425;53;21006;-67
2024/03/23 07:03:40;;;;;;;0.57;0.30;;;13.90;67.60;;;;;;2368681;53;21013;-68
2024/03/23 07:06:06;;;;;;;0.80;0.37;;;13.80;67.40;;;;;;2368545;53;21006;-67
2024/03/23 07:08:32;;;;;;;0.88;0.40;;;13.80;67.40;;;;;;2368642;53;21038;-66
2024/03/23 07:11:01;;;;;;;0.70;0.30;;;13.80;67.70;;;;;;2367953;53;21249;-66
2024/03/23 07:13:27;;;;;;;1.05;0.45;;;13.70;67.30;;;;;;2362714;53;21710;-66
2024/03/23 07:15:55;;;;;;;1.10;0.43;;;13.70;67.30;;;;;;2349357;53;20947;-65
2024/03/23 07:18:21;;;;;;;0.88;0.40;;;13.70;67.30;;;;;;2367578;53;20922;-64
2024/03/23 07:20:58;;;;;;;0.60;0.30;;;13.60;67.10;;;;;;2351377;53;21153;-65
2024/03/23 07:23:24;;;;;;;0.98;0.40;;;13.60;66.80;;;;;;2363495;53;21384;-66
2024/03/23 07:26:04;;;;;;;1.30;0.43;;;13.50;67.20;;;;;;2367872;53;20978;-65
2024/03/23 07:28:34;;;;;;;1.10;0.50;;;13.50;66.80;;;;;;2367774;53;21517;-66
2024/03/23 07:31:10;;;;;;;1.27;0.50;;;13.50;67.30;;;;;;2368377;53;20982;-65
2024/03/23 07:33:41;;;;;;;0.65;0.30;;;13.50;67.20;;;;;;2368357;53;21336;-67
2024/03/23 07:36:08;;;;;;;0.60;0.30;;;13.40;67.30;;;;;;2368843;53;20981;-66
2024/03/23 07:38:34;;;;;;;1.20;0.43;;;13.40;67.40;;;;;;2344620;53;20926;-65
2024/03/23 07:41:10;;;;;;;0.88;0.35;;;13.40;67.50;;;;;;2367459;53;22323;-64
2024/03/23 07:43:37;;;;;;;1.65;0.60;;;13.40;67.20;;;;;;2367922;53;20957;-65
2024/03/23 07:46:04;;;;;;;1.60;0.50;;;13.40;67.50;;;;;;2368178;53;20942;-66
2024/03/23 07:48:30;;;;;;;1.52;0.47;;;13.30;67.30;;;;;;2356230;53;22213;-66
2024/03/23 07:51:00;;;;;;;0.82;0.40;;;13.30;67.40;;;;;;2356408;53;21257;-65
2024/03/23 07:53:27;;;;;;;3.17;0.55;;;13.30;67.40;;;;;;2368487;53;20938;-65
2024/03/23 07:55:57;;;;;;;4.18;0.65;;;13.30;67.70;;;;;;2365501;53;21849;-66
2024/03/23 07:58:24;;;;;;;1.80;0.70;;;13.30;67.80;;;;;;2348804;53;21404;-66
2024/03/23 08:00:50;;;;;;;3.33;0.80;;;13.30;68.20;;;;;;2368136;53;21048;-66
2024/03/23 08:03:16;;;;;;;2.22;0.70;;;13.30;68.40;;;;;;2344274;53;20994;-65
2024/03/23 08:05:42;;;;;;;1.80;0.75;;;13.30;68.40;;;;;;2368931;53;22902;-65
2024/03/23 08:08:09;;;;;;;4.57;1.10;;;13.40;68.60;;;;;;2368104;53;21468;-65
2024/03/23 08:10:35;;;;;;;3.00;1.27;;;13.40;68.50;;;;;;2368663;53;21033;-65
2024/03/23 08:13:02;;;;;;;6.72;1.48;;;13.40;68.20;;;;;;2344841;53;20935;-66
2024/03/23 08:15:32;;;;;;;4.22;1.80;;;13.40;67.70;;;;;;2368172;53;21408;-66
2024/03/23 08:17:59;;;;;;;4.72;1.65;;;13.40;67.40;;;;;;2368243;53;21377;-65
2024/03/23 08:20:27;;;;;;;4.35;1.60;;;13.40;67.30;;;;;;2368219;53;20981;-65
2024/03/23 08:22:54;;;;;;;5.18;2.08;;;13.40;67.00;;;;;;2368647;53;20946;-65
2024/03/23 08:25:21;;;;;;;4.62;1.83;;;13.40;66.80;;;;;;2368181;53;21347;-66
2024/03/23 08:27:48;;;;;;;5.50;1.87;;;13.40;66.70;;;;;;2368833;53;20910;-66
2024/03/23 08:30:14;;;;;;;5.37;1.70;;;13.40;66.50;;;;;;2368707;53;21101;-65
2024/03/23 08:32:41;;;;;;;7.78;2.40;;;13.40;66.50;;;;;;2368701;53;21061;-66
2024/03/23 08:35:08;;;;;;;6.50;2.35;;;13.30;66.40;;;;;;2368238;53;20929;-64
2024/03/23 08:37:35;;;;;;;4.93;2.37;;;13.30;66.30;;;;;;2368762;53;21487;-66
2024/03/23 08:40:01;;;;;;;5.22;2.33;;;13.30;66.40;;;;;;2368202;53;21823;-65
2024/03/23 08:42:29;;;;;;;5.55;2.28;;;13.30;66.30;;;;;;2368273;53;20926;-66
2024/03/23 08:44:55;;;;;;;4.93;2.37;;;13.30;66.80;;;;;;2368359;53;20965;-64
2024/03/23 08:47:22;;;;;;;8.85;4.05;;;13.30;66.20;;;;;;2368349;53;20973;-66
2024/03/23 08:49:51;;;;;;;6.68;3.15;;;13.30;66.30;;;;;;2368185;53;21436;-66
2024/03/23 08:52:17;;;;;;;8.52;2.67;;;13.30;66.30;;;;;;2368434;53;20925;-66
2024/03/23 08:54:43;;;;;;;6.25;2.45;;;13.40;66.50;;;;;;2368289;53;20935;-66
2024/03/23 08:57:10;;;;;;;6.15;2.58;;;13.40;66.60;;;;;;2368098;53;20979;-65
2024/03/23 08:59:38;;;;;;;5.55;2.37;;;13.40;66.80;;;;;;2369007;53;20946;-66
2024/03/23 09:02:05;;;;;;;5.80;2.90;;;13.50;66.70;;;;;;2368018;53;21010;-64
2024/03/23 09:04:31;;;;;;;8.02;2.87;;;13.50;66.90;;;;;;2368792;53;20962;-65
2024/03/23 09:07:00;;;;;;;5.87;2.55;;;13.50;66.60;;;;;;2343468;53;20943;-66
2024/03/23 09:09:26;;;;;;;5.95;3.25;;;13.60;66.60;;;;;;2368093;53;20919;-66
2024/03/23 09:11:53;;;;;;;5.55;2.85;;;13.60;66.60;;;;;;2368565;53;20988;-66
2024/03/23 09:14:22;;;;;;;8.68;3.75;;;13.60;66.60;;;;;;2587146;52;21914;-67
2024/03/23 09:16:52;;;;;;;8.52;3.90;;;13.70;66.40;;;;;;2368830;53;21435;-67
2024/03/23 09:19:20;;;;;;;8.37;2.60;;;13.70;66.20;;;;;;2369058;53;20898;-67
2024/03/23 09:21:47;;;;;;;6.55;2.78;;;13.70;66.40;;;;;;2368564;53;21012;-64
2024/03/23 09:24:13;;;;;;;5.70;2.55;;;13.80;67.40;;;;;;2368228;53;21549;-65
2024/03/23 09:26:39;;;;;;;5.90;2.60;;;13.90;67.00;;;;;;2368548;53;21507;-66
2024/03/23 09:29:05;;;;;;;6.43;2.72;;;13.90;67.10;;;;;;2370614;53;21034;-67
2024/03/23 09:31:33;;;;;;;6.62;2.30;;;14.00;67.00;;;;;;2343009;53;21307;-67
2024/03/23 09:33:59;;;;;;;6.97;2.60;;;14.10;67.00;;;;;;2367686;53;20960;-66
2024/03/23 09:36:26;;;;;;;7.68;2.55;;;14.20;67.20;;;;;;2368536;53;21800;-66
2024/03/23 09:38:52;;;;;;;9.52;3.55;;;14.30;67.10;;;;;;2352034;53;21051;-65
2024/03/23 09:41:19;;;;;;;5.28;2.55;;;14.40;66.80;;;;;;2360631;53;21274;-66
2024/03/23 09:43:48;;;;;;;6.00;2.60;;;14.40;66.60;;;;;;2368700;53;20946;-67
2024/03/23 09:46:17;;;;;;;8.65;2.40;;;14.40;66.60;;;;;;2368588;53;21204;-67
2024/03/23 09:48:46;;;;;;;6.22;2.22;;;14.50;66.80;;;;;;2368825;53;21053;-66
2024/03/23 09:51:12;;;;;;;6.10;2.30;;;14.50;66.80;;;;;;2368396;53;21486;-67
2024/03/23 09:53:39;;;;;;;5.32;2.28;;;14.60;66.70;;;;;;2368483;53;21471;-65
2024/03/23 09:56:05;;;;;;;6.47;2.37;;;14.70;66.80;;;;;;2369295;53;21054;-66
2024/03/23 09:58:34;;;;;;;5.18;2.15;;;14.80;66.90;;;;;;2368339;53;20973;-65
2024/03/23 10:01:01;;;;;;;6.20;2.00;;;14.80;66.70;;;;;;2367934;53;20934;-65
2024/03/23 10:03:27;;;;;;;4.35;1.80;;;14.90;66.60;;;;;;2368522;53;20990;-66
2024/03/23 10:06:02;;;;;;;5.12;2.00;;;14.90;66.40;;;;;;2368743;53;21030;-66
2024/03/23 10:08:29;;;;;;;6.90;2.05;;;15.00;65.20;;;;;;2371924;53;20945;-66
2024/03/23 10:10:55;;;;;;;6.47;1.90;;;15.00;65.60;;;;;;2368264;53;20998;-66
2024/03/23 10:13:25;;;;;;;7.65;1.75;;;15.00;65.30;;;;;;2368487;53;20942;-65
2024/03/23 10:15:58;;;;;;;6.78;2.03;;;15.00;64.70;;;;;;2368656;53;20933;-67
2024/03/23 10:18:25;;;;;;;4.93;1.90;;;15.00;64.10;;;;;;2359756;53;20947;-66
2024/03/23 10:21:08;;;;;;;4.43;1.25;;;15.00;64.50;;;;;;2354468;53;21005;-64
2024/03/23 10:23:43;;;;;;;2.83;0.88;;;14.90;64.40;;;;;;2368924;53;21459;-66
2024/03/23 10:26:25;;;;;;;3.20;1.30;;;14.80;62.80;;;;;;2368127;54;20946;-66
2024/03/23 10:29:01;;;;;;;3.12;1.05;;;14.60;61.10;;;;;;2368718;53;20938;-65
2024/03/23 10:31:28;;;;;;;5.40;1.10;;;14.50;61.00;;;;;;2344843;54;20962;-65
2024/03/23 10:33:55;;;;;;;4.85;1.15;;;14.20;61.30;;;;;;2368898;53;21526;-65
2024/03/23 10:36:22;;;;;;;3.03;1.60;;;14.10;61.20;;;;;;2368525;53;20970;-66
2024/03/23 10:38:51;;;;;;;2.42;0.75;;;13.80;61.30;;;;;;2368954;53;21333;-66
2024/03/23 10:41:17;;;;;;;2.40;0.60;;;13.60;61.40;;;;;;2368351;53;20926;-66
2024/03/23 10:43:47;;;;;;;1.05;0.50;;;13.50;61.80;;;;;;2368360;53;21025;-66
2024/03/23 10:46:13;;;;;;;2.37;0.68;;;13.30;62.10;;;;;;2368241;53;20914;-66
2024/03/23 10:48:40;;;;;;;1.52;0.50;;;13.20;62.60;;;;;;2368362;53;20946;-64
2024/03/23 10:51:07;;;;;;;1.60;0.50;;;13.00;62.90;;;;;;2368278;53;20954;-65
2024/03/23 10:53:34;;;;;;;1.02;0.30;;;12.90;63.30;;;;;;2368748;53;21708;-65
2024/03/23 10:56:00;;;;;;;1.92;0.50;;;12.80;63.70;;;;;;2367854;53;21088;-64
2024/03/23 10:58:45;;;;;;;1.70;0.50;;;12.80;64.00;;;;;;2345194;53;21038;-65
2024/03/23 11:01:13;;;;;;;1.95;0.60;;;12.70;64.10;;;;;;2368391;53;21053;-67
2024/03/23 11:03:45;;;;;;;2.72;0.80;;;12.60;64.40;;;;;;2368783;53;20993;-65
2024/03/23 11:06:15;;;;;;;3.03;0.88;;;12.60;64.40;;;;;;2368354;53;21181;-66
2024/03/23 11:08:42;;;;;;;4.47;1.00;;;12.50;64.50;;;;;;2368068;53;20982;-67
2024/03/23 11:11:19;;;;;;;2.50;0.93;;;12.50;64.60;;;;;;2368259;53;21008;-69
2024/03/23 11:13:48;;;;;;;3.30;1.37;;;12.50;64.50;;;;;;2368451;53;20934;-68
2024/03/23 11:16:35;;;;;;;3.20;0.70;;;12.40;64.90;;;;;;2367955;53;22133;-66
2024/03/23 11:19:38;;;;;;;3.40;1.20;;;12.40;64.70;;;;;;2368059;53;20950;-65
2024/03/23 11:22:05;;;;;;;3.22;0.95;;;12.40;64.50;;;;;;2368567;53;21291;-66
2024/03/23 11:24:31;;;;;;;3.42;1.20;;;12.30;65.40;;;;;;2368299;53;21866;-65
2024/03/23 11:27:03;;;;;;;3.72;1.60;;;12.30;65.60;;;;;;2368743;53;21539;-64
2024/03/23 11:29:29;;;;;;;5.28;1.83;;;12.30;65.80;;;;;;2343257;53;21441;-65
2024/03/23 11:31:56;;;;;;;4.72;2.00;;;12.30;66.10;;;;;;2341529;53;21237;-65
2024/03/23 11:34:22;;;;;;;5.70;1.67;;;12.40;66.80;;;;;;2334761;53;21041;-65
2024/03/23 11:36:52;;;;;;;3.87;1.20;;;12.40;67.40;;;;;;2340259;53;21564;-65
2024/03/23 11:39:20;;;;;;;6.53;2.20;;;12.40;67.90;;;;;;2341110;54;21279;-66
2024/03/23 11:41:51;;;;;;;6.40;1.87;;;12.60;68.70;;;;;;2319775;54;20919;-65
2024/03/23 11:44:22;;;;;;;6.62;2.42;;;12.70;69.20;;;;;;2341271;55;21433;-66
2024/03/23 11:46:48;;;;;;;4.12;1.83;;;12.80;69.50;;;;;;2345389;53;20933;-65
2024/03/23 11:49:26;;;;;;;5.25;1.83;;;12.90;70.00;;;;;;2351876;53;21424;-64
2024/03/23 11:51:54;;;;;;;6.55;1.48;;;13.10;70.60;;;;;;2367003;53;20954;-67
2024/03/23 11:54:24;;;;;;;5.75;1.30;;;13.30;70.80;;;;;;2368380;53;21685;-66
2024/03/23 11:56:57;;;;;;;5.40;1.60;;;13.40;70.30;;;;;;2368150;53;21105;-67
2024/03/23 11:59:40;;;;;;;5.60;1.90;;;13.60;69.40;;;;;;2368296;53;21096;-65
2024/03/23 12:02:16;;;;;;;3.42;1.50;;;13.70;68.60;;;;;;2368178;53;20970;-66
2024/03/23 12:04:42;;;;;;;4.22;1.27;;;13.80;68.90;;;;;;2368628;53;20997;-66
2024/03/23 12:07:21;;;;;;;6.30;1.48;;;13.90;68.90;;;;;;2364672;53;21836;-67
2024/03/23 12:10:06;;;;;;;6.75;2.20;;;14.00;68.40;;;;;;2354858;53;21654;-67
2024/03/23 12:12:35;;;;;;;4.25;1.00;;;14.10;67.70;;;;;;2369361;53;20938;-67
2024/03/23 12:15:05;;;;;;;5.00;1.62;;;14.20;68.20;;;;;;2369162;53;20918;-65
2024/03/23 12:17:32;;;;;;;5.00;1.55;;;14.30;68.10;;;;;;2348565;54;20922;-67
2024/03/23 12:19:58;;;;;;;7.05;1.50;;;14.40;68.30;;;;;;2368763;53;21050;-68
2024/03/23 12:22:25;;;;;;;4.90;1.33;;;14.40;67.70;;;;;;2368273;53;20953;-67
2024/03/23 12:24:51;;;;;;;4.82;1.70;;;14.50;67.20;;;;;;2368938;53;20961;-66
2024/03/23 12:27:17;;;;;;;3.92;1.12;;;14.60;67.10;;;;;;2367732;53;21022;-66
2024/03/23 12:29:45;;;;;;;8.38;1.70;;;14.60;66.30;;;;;;2368592;53;20930;-66
2024/03/23 12:32:12;;;;;;;5.15;1.20;;;14.60;65.80;;;;;;2368213;53;20978;-65
2024/03/23 12:34:39;;;;;;;5.18;1.25;;;14.70;66.20;;;;;;2368674;53;21301;-68
2024/03/23 12:37:09;;;;;;;4.55;1.42;;;14.70;65.90;;;;;;2368448;53;20953;-67
2024/03/23 12:39:35;;;;;;;4.22;1.15;;;14.80;65.80;;;;;;2368966;53;21077;-67
2024/03/23 12:42:04;;;;;;;6.45;1.20;;;14.80;65.50;;;;;;2368690;53;20934;-66
2024/03/23 12:44:31;;;;;;;4.22;1.00;;;14.90;65.00;;;;;;2368616;53;21061;-65
2024/03/23 12:47:00;;;;;;;3.30;0.90;;;14.90;65.00;;;;;;2369329;53;21726;-66
2024/03/23 12:49:26;;;;;;;4.05;1.10;;;14.90;64.60;;;;;;2368817;53;21029;-66
2024/03/23 12:51:56;;;;;;;5.37;1.30;;;14.90;64.70;;;;;;2369460;53;21277;-66